Time;durP1;ratioP1;P1;durP2;ratioP2;P2;SDS_P1;SDS_P2;PMS_P1;PMS_P2;Temp;Humidity;BMP_temperature;BMP_pressure;BME280_temperature;BME280_humidity;BME280_pressure;Samples;Min_cycle;Max_cycle;Signal;HPM_P1;HPM_P2
2022/11/24 00:01:28;;;;;;;1.77;1.67;;;;;6.80;95267.00;;;;5095336;28;20209;-63
2022/11/24 00:03:57;;;;;;;0.60;0.60;;;;;6.70;95266.00;;;;5076543;28;20555;-61
2022/11/24 00:06:24;;;;;;;0.73;0.73;;;;;6.80;95256.00;;;;5077179;28;20225;-64
2022/11/24 00:08:51;;;;;;;1.03;1.03;;;;;6.70;95271.00;;;;5094026;28;20206;-61
2022/11/24 00:11:22;;;;;;;1.33;1.23;;;;;6.60;95269.00;;;;5093911;28;20275;-61
2022/11/24 00:13:53;;;;;;;4.23;1.63;;;;;6.60;95269.00;;;;5093807;28;20229;-61
2022/11/24 00:16:24;;;;;;;1.20;1.20;;;;;6.40;95265.00;;;;5093883;28;20198;-62
2022/11/24 00:18:52;;;;;;;0.60;0.60;;;;;6.30;95265.00;;;;5093642;28;20229;-61
2022/11/24 00:21:20;;;;;;;2.10;1.70;;;;;6.40;95270.00;;;;5093731;28;20201;-61
2022/11/24 00:23:48;;;;;;;1.50;1.03;;;;;6.30;95279.00;;;;5093672;28;20250;-61
2022/11/24 00:26:16;;;;;;;0.73;0.73;;;;;6.20;95275.00;;;;5093461;28;20549;-61
2022/11/24 00:28:44;;;;;;;0.60;0.60;;;;;6.20;95281.00;;;;5093637;28;20191;-62
2022/11/24 00:31:17;;;;;;;5.03;1.60;;;;;6.30;95277.00;;;;5093428;28;20644;-61
2022/11/24 00:33:44;;;;;;;0.70;0.70;;;;;6.30;95289.00;;;;5093418;28;20209;-61
2022/11/24 00:36:15;;;;;;;1.83;1.73;;;;;6.40;95291.00;;;;5093602;28;20190;-61
2022/11/24 00:38:45;;;;;;;0.80;0.80;;;;;6.50;95286.00;;;;5093459;28;20274;-61
2022/11/24 00:41:12;;;;;;;1.97;0.90;;;;;6.50;95293.00;;;;5093451;28;20190;-65
2022/11/24 00:43:39;;;;;;;0.60;0.60;;;;;6.60;95295.00;;;;5093274;28;20262;-63
2022/11/24 00:46:06;;;;;;;0.60;0.60;;;;;6.40;95298.00;;;;5093400;28;20640;-62
2022/11/24 00:48:34;;;;;;;9.53;1.63;;;;;6.30;95294.00;;;;5093346;28;20190;-61
2022/11/24 00:51:02;;;;;;;1.67;1.53;;;;;6.20;95287.00;;;;5093322;28;20205;-61
2022/11/24 00:53:29;;;;;;;0.60;0.60;;;;;6.20;95298.00;;;;5093337;28;20194;-62
2022/11/24 00:55:57;;;;;;;2.03;1.33;;;;;6.20;95297.00;;;;5093266;28;20230;-61
2022/11/24 00:58:24;;;;;;;0.60;0.60;;;;;6.10;95300.00;;;;5093884;28;20199;-61
2022/11/24 01:00:52;;;;;;;0.57;0.57;;;;;6.00;95292.00;;;;5079411;28;20210;-61
2022/11/24 01:03:20;;;;;;;1.07;1.07;;;;;6.00;95301.00;;;;5096838;28;20232;-61
2022/11/24 01:05:47;;;;;;;2.03;1.93;;;;;5.90;95305.00;;;;5096750;28;20229;-65
2022/11/24 01:08:15;;;;;;;0.87;0.87;;;;;6.00;95308.00;;;;5096774;28;20225;-63
2022/11/24 01:10:41;;;;;;;0.80;0.80;;;;;6.10;95310.00;;;;5079027;28;20539;-62
2022/11/24 01:13:08;;;;;;;0.70;0.70;;;;;6.10;95308.00;;;;5096792;28;20209;-61
2022/11/24 01:15:35;;;;;;;0.60;0.60;;;;;6.10;95324.00;;;;5096739;28;20256;-61
2022/11/24 01:18:05;;;;;;;1.27;0.73;;;;;6.10;95322.00;;;;5096700;28;20235;-61
2022/11/24 01:20:32;;;;;;;0.80;0.80;;;;;6.10;95331.00;;;;5096434;28;20226;-62
2022/11/24 01:22:59;;;;;;;1.33;1.23;;;;;6.00;95329.00;;;;5078654;28;20202;-61
2022/11/24 01:25:26;;;;;;;1.80;1.70;;;;;5.90;95329.00;;;;5096276;28;20222;-61
2022/11/24 01:27:53;;;;;;;0.70;0.70;;;;;5.80;95328.00;;;;5096303;28;20631;-61
2022/11/24 01:30:21;;;;;;;0.70;0.70;;;;;5.90;95320.00;;;;5096477;28;20248;-64
2022/11/24 01:32:48;;;;;;;0.40;0.40;;;;;6.10;95334.00;;;;5078368;28;20238;-61
2022/11/24 01:35:15;;;;;;;0.67;0.67;;;;;6.20;95332.00;;;;5096241;28;20299;-62
2022/11/24 01:37:42;;;;;;;4.10;1.57;;;;;6.00;95343.00;;;;5096273;28;20612;-61
2022/11/24 01:40:12;;;;;;;1.80;1.57;;;;;6.20;95348.00;;;;5096199;28;20202;-65
2022/11/24 01:42:47;;;;;;;0.70;0.70;;;;;6.20;95339.00;;;;5096381;28;20256;-61
2022/11/24 01:45:33;;;;;;;0.80;0.80;;;;;6.30;95341.00;;;;5095935;28;20558;-61
2022/11/24 01:48:02;;;;;;;4.53;0.90;;;;;6.40;95333.00;;;;5096101;28;20202;-61
2022/11/24 01:50:29;;;;;;;0.50;0.50;;;;;6.20;95339.00;;;;5095835;28;20204;-61
2022/11/24 01:52:57;;;;;;;0.90;0.90;;;;;6.00;95336.00;;;;5096060;28;20233;-61
2022/11/24 01:55:30;;;;;;;0.50;0.50;;;;;6.00;95341.00;;;;5095927;28;20202;-61
2022/11/24 01:58:04;;;;;;;0.60;0.60;;;;;6.00;95347.00;;;;5095936;28;20553;-60
2022/11/24 02:00:32;;;;;;;1.37;1.27;;;;;6.20;95335.00;;;;5095971;28;20194;-61
2022/11/24 02:02:59;;;;;;;0.50;0.50;;;;;6.40;95350.00;;;;5077963;28;20223;-61
2022/11/24 02:05:30;;;;;;;0.70;0.70;;;;;6.30;95347.00;;;;5095785;28;20222;-61
2022/11/24 02:08:01;;;;;;;0.60;0.60;;;;;6.50;95345.00;;;;5095767;28;20305;-61
2022/11/24 02:10:31;;;;;;;0.60;0.60;;;;;6.50;95340.00;;;;5095484;28;20195;-61
2022/11/24 02:12:59;;;;;;;3.43;0.80;;;;;6.60;95347.00;;;;5095641;28;20641;-61
2022/11/24 02:15:29;;;;;;;2.57;1.90;;;;;6.50;95340.00;;;;5077750;28;20221;-61
2022/11/24 02:17:57;;;;;;;0.60;0.60;;;;;6.50;95342.00;;;;5077762;28;20531;-61
2022/11/24 02:20:25;;;;;;;0.57;0.57;;;;;6.50;95345.00;;;;5095497;28;20217;-62
2022/11/24 02:22:59;;;;;;;1.20;1.20;;;;;6.30;95341.00;;;;5095609;28;20217;-62
2022/11/24 02:25:35;;;;;;;0.70;0.70;;;;;6.30;95337.00;;;;5095546;28;20229;-61
2022/11/24 02:28:07;;;;;;;0.93;0.93;;;;;6.30;95338.00;;;;5095460;28;20193;-61
2022/11/24 02:30:34;;;;;;;1.00;1.00;;;;;6.20;95337.00;;;;5077775;28;20220;-62
2022/11/24 02:33:01;;;;;;;1.03;1.03;;;;;6.20;95336.00;;;;5077924;28;20203;-64
2022/11/24 02:35:28;;;;;;;0.60;0.60;;;;;6.20;95331.00;;;;5095605;28;20193;-63
2022/11/24 02:37:55;;;;;;;1.10;1.10;;;;;6.20;95336.00;;;;5095625;28;20285;-61
2022/11/24 02:40:24;;;;;;;0.73;0.73;;;;;6.20;95343.00;;;;5095205;28;20197;-62
2022/11/24 02:42:54;;;;;;;0.60;0.60;;;;;6.20;95343.00;;;;5095219;28;20221;-61
2022/11/24 02:45:22;;;;;;;0.90;0.90;;;;;6.50;95342.00;;;;5095134;28;20236;-61
2022/11/24 02:47:49;;;;;;;0.90;0.90;;;;;6.40;95345.00;;;;5095128;28;20213;-61
2022/11/24 02:50:16;;;;;;;0.50;0.50;;;;;6.20;95345.00;;;;5095035;28;20761;-62
2022/11/24 02:52:43;;;;;;;0.40;0.40;;;;;6.10;95347.00;;;;5095001;28;20537;-63
2022/11/24 02:55:12;;;;;;;1.40;1.40;;;;;6.20;95356.00;;;;5094846;28;20283;-61
2022/11/24 02:57:39;;;;;;;1.13;1.07;;;;;6.50;95359.00;;;;5094992;28;20190;-61
2022/11/24 03:00:07;;;;;;;0.60;0.60;;;;;6.30;95359.00;;;;5094739;28;20217;-61
2022/11/24 03:02:36;;;;;;;0.63;0.63;;;;;6.30;95354.00;;;;5094820;28;20261;-61
2022/11/24 03:05:03;;;;;;;0.60;0.60;;;;;6.30;95355.00;;;;5094616;28;20229;-61
2022/11/24 03:07:30;;;;;;;0.60;0.60;;;;;6.20;95360.00;;;;5094830;28;20193;-61
2022/11/24 03:09:57;;;;;;;1.90;1.53;;;;;6.20;95351.00;;;;5094837;28;20539;-60
2022/11/24 03:12:26;;;;;;;0.67;0.67;;;;;6.30;95359.00;;;;5076863;28;20218;-63
2022/11/24 03:14:53;;;;;;;0.67;0.67;;;;;6.40;95355.00;;;;5077069;28;20228;-61
2022/11/24 03:17:19;;;;;;;0.60;0.60;;;;;6.40;95358.00;;;;5094532;28;20219;-61
2022/11/24 03:19:47;;;;;;;0.77;0.77;;;;;6.50;95364.00;;;;5094697;28;20197;-61
2022/11/24 03:22:14;;;;;;;0.57;0.57;;;;;6.60;95362.00;;;;5075810;28;20285;-61
2022/11/24 03:24:41;;;;;;;3.40;1.13;;;;;6.50;95361.00;;;;5076700;28;20225;-62
2022/11/24 03:27:07;;;;;;;0.60;0.60;;;;;6.50;95372.00;;;;5076724;28;20194;-61
2022/11/24 03:29:34;;;;;;;0.97;0.97;;;;;6.60;95377.00;;;;5094553;28;20215;-61
2022/11/24 03:32:04;;;;;;;0.60;0.60;;;;;6.60;95369.00;;;;5076626;28;20598;-61
2022/11/24 03:34:33;;;;;;;0.80;0.80;;;;;6.60;95365.00;;;;5094487;28;20719;-62
2022/11/24 03:37:00;;;;;;;0.60;0.60;;;;;6.50;95359.00;;;;5094757;28;20568;-61
2022/11/24 03:39:27;;;;;;;0.53;0.53;;;;;6.60;95366.00;;;;5076730;28;20230;-61
2022/11/24 03:41:56;;;;;;;0.50;0.50;;;;;6.50;95367.00;;;;5094310;28;20239;-63
2022/11/24 03:44:23;;;;;;;0.53;0.53;;;;;6.60;95371.00;;;;5094105;28;20214;-61
2022/11/24 03:46:50;;;;;;;0.87;0.87;;;;;6.50;95367.00;;;;5094212;28;20201;-63
2022/11/24 03:49:17;;;;;;;0.60;0.60;;;;;6.40;95374.00;;;;5094201;28;20191;-63
2022/11/24 03:51:44;;;;;;;0.70;0.70;;;;;6.50;95384.00;;;;5094063;28;20193;-61
2022/11/24 03:54:11;;;;;;;5.27;1.10;;;;;6.80;95385.00;;;;5094109;28;20190;-62
2022/11/24 03:56:38;;;;;;;1.17;0.90;;;;;6.90;95387.00;;;;5093762;28;20674;-61
2022/11/24 03:59:05;;;;;;;0.60;0.60;;;;;6.90;95402.00;;;;5094061;28;20247;-61
2022/11/24 04:01:34;;;;;;;0.60;0.60;;;;;6.70;95397.00;;;;5076169;28;20261;-61
2022/11/24 04:04:00;;;;;;;0.60;0.60;;;;;6.80;95396.00;;;;5093824;28;20200;-61
2022/11/24 04:06:27;;;;;;;3.00;1.37;;;;;6.80;95397.00;;;;5076195;28;20194;-61
2022/11/24 04:08:54;;;;;;;4.07;1.53;;;;;6.80;95409.00;;;;5093860;28;20263;-63
2022/11/24 04:14:11;;;;;;;0.53;0.53;;;;;6.90;95409.00;;;;5020422;28;20250;-62
2022/11/24 04:16:38;;;;;;;0.60;0.60;;;;;6.80;95410.00;;;;5093716;28;20206;-61
2022/11/24 04:19:05;;;;;;;0.57;0.57;;;;;6.80;95404.00;;;;5093584;28;20220;-62
2022/11/24 04:21:32;;;;;;;0.70;0.70;;;;;6.90;95416.00;;;;5093659;28;20201;-62
2022/11/24 04:23:59;;;;;;;0.60;0.60;;;;;6.90;95409.00;;;;5093478;28;20246;-61
2022/11/24 04:26:26;;;;;;;0.50;0.50;;;;;6.90;95408.00;;;;5093645;28;20195;-64
2022/11/24 04:28:55;;;;;;;0.70;0.70;;;;;6.90;95413.00;;;;5075808;28;20761;-61
2022/11/24 04:31:24;;;;;;;0.60;0.60;;;;;6.80;95420.00;;;;5093743;28;20219;-62
2022/11/24 04:33:51;;;;;;;0.80;0.80;;;;;6.80;95422.00;;;;5093311;28;20634;-61
2022/11/24 04:36:18;;;;;;;0.40;0.40;;;;;6.80;95426.00;;;;5093389;28;20236;-61
2022/11/24 04:38:45;;;;;;;1.10;1.10;;;;;6.90;95426.00;;;;5093428;28;20205;-61
2022/11/24 04:41:11;;;;;;;1.20;1.20;;;;;6.90;95435.00;;;;5075497;28;20316;-61
2022/11/24 04:43:41;;;;;;;2.27;1.20;;;;;6.80;95426.00;;;;5093352;28;20201;-67
2022/11/24 04:46:09;;;;;;;1.07;1.07;;;;;6.70;95429.00;;;;5093217;28;20229;-61
2022/11/24 04:48:36;;;;;;;1.00;1.00;;;;;6.50;95429.00;;;;5093844;28;20231;-62
2022/11/24 04:51:04;;;;;;;8.23;1.20;;;;;6.50;95425.00;;;;5093629;28;20199;-62
2022/11/24 04:53:34;;;;;;;1.33;1.23;;;;;6.50;95423.00;;;;5093640;28;20642;-62
2022/11/24 04:56:04;;;;;;;1.17;1.17;;;;;6.50;95440.00;;;;5093465;28;20195;-62
2022/11/24 04:58:31;;;;;;;5.50;1.03;;;;;6.40;95433.00;;;;5093486;28;20226;-62
2022/11/24 05:00:59;;;;;;;0.70;0.70;;;;;6.30;95433.00;;;;5093320;28;20278;-61
2022/11/24 05:03:26;;;;;;;0.83;0.80;;;;;6.30;95434.00;;;;5093301;28;20582;-62
2022/11/24 05:05:52;;;;;;;0.77;0.77;;;;;6.20;95438.00;;;;5093222;28;20215;-64
2022/11/24 05:08:19;;;;;;;0.50;0.50;;;;;6.20;95437.00;;;;5093160;28;20221;-63
2022/11/24 05:10:46;;;;;;;0.53;0.53;;;;;6.20;95438.00;;;;5093266;28;20193;-62
2022/11/24 05:13:15;;;;;;;1.60;1.50;;;;;6.30;95443.00;;;;5075194;28;20230;-60
2022/11/24 05:15:42;;;;;;;1.13;1.13;;;;;6.40;95447.00;;;;5075356;28;20647;-60
2022/11/24 05:18:14;;;;;;;0.50;0.50;;;;;6.30;95454.00;;;;5075269;28;20613;-60
2022/11/24 05:20:43;;;;;;;0.73;0.73;;;;;6.30;95459.00;;;;5093010;28;20209;-60
2022/11/24 05:23:10;;;;;;;0.50;0.50;;;;;6.30;95446.00;;;;5075368;28;20523;-62
2022/11/24 05:25:37;;;;;;;0.50;0.50;;;;;6.20;95466.00;;;;5092754;28;20688;-60
2022/11/24 05:28:08;;;;;;;2.93;1.40;;;;;6.30;95453.00;;;;5092754;28;20229;-60
2022/11/24 05:30:37;;;;;;;1.00;1.00;;;;;6.40;95459.00;;;;5092947;28;20578;-60
2022/11/24 05:33:08;;;;;;;0.73;0.73;;;;;6.50;95471.00;;;;5074823;28;20230;-61
2022/11/24 05:35:38;;;;;;;1.93;1.43;;;;;6.70;95466.00;;;;5075216;28;20230;-61
2022/11/24 05:38:05;;;;;;;0.70;0.70;;;;;6.60;95458.00;;;;5092639;28;20217;-61
2022/11/24 05:40:34;;;;;;;1.27;1.27;;;;;6.60;95458.00;;;;5074899;28;20211;-61
2022/11/24 05:43:01;;;;;;;5.03;0.77;;;;;6.50;95462.00;;;;5092604;28;20826;-61
2022/11/24 05:45:28;;;;;;;1.63;1.53;;;;;6.50;95454.00;;;;5094297;28;20218;-61
2022/11/24 05:47:54;;;;;;;0.50;0.50;;;;;6.80;95464.00;;;;5095914;28;20523;-62
2022/11/24 05:50:22;;;;;;;0.67;0.67;;;;;6.80;95462.00;;;;5096288;28;20220;-62
2022/11/24 05:52:52;;;;;;;2.33;0.93;;;;;6.70;95458.00;;;;5096061;28;20254;-61
2022/11/24 05:55:19;;;;;;;0.90;0.90;;;;;6.80;95464.00;;;;5096073;28;20206;-60
2022/11/24 05:57:48;;;;;;;1.40;1.13;;;;;6.80;95459.00;;;;5095885;28;20214;-61
2022/11/24 06:00:18;;;;;;;1.23;1.13;;;;;6.80;95450.00;;;;5095809;28;20202;-64
2022/11/24 06:02:48;;;;;;;0.90;0.90;;;;;6.70;95448.00;;;;5095802;28;20217;-61
2022/11/24 06:05:14;;;;;;;1.43;1.33;;;;;6.80;95440.00;;;;5095720;28;20540;-62
2022/11/24 06:07:41;;;;;;;0.60;0.60;;;;;6.60;95461.00;;;;5095764;28;20299;-61
2022/11/24 06:10:09;;;;;;;2.53;1.17;;;;;6.50;95454.00;;;;5078179;28;20202;-61
2022/11/24 06:12:36;;;;;;;0.70;0.70;;;;;6.50;95464.00;;;;5095679;28;20190;-62
2022/11/24 06:15:03;;;;;;;0.50;0.50;;;;;6.50;95466.00;;;;5095617;28;20201;-65
2022/11/24 06:17:30;;;;;;;0.50;0.50;;;;;6.60;95469.00;;;;5095619;28;20206;-62
2022/11/24 06:19:59;;;;;;;0.57;0.57;;;;;6.40;95465.00;;;;5095238;28;20294;-61
2022/11/24 06:22:26;;;;;;;0.97;0.97;;;;;6.40;95474.00;;;;5077613;28;20531;-61
2022/11/24 06:24:55;;;;;;;0.67;0.67;;;;;6.40;95469.00;;;;5095139;28;20733;-61
2022/11/24 06:27:22;;;;;;;0.77;0.70;;;;;6.50;95473.00;;;;5077875;28;20190;-61
2022/11/24 06:29:49;;;;;;;0.53;0.53;;;;;6.60;95477.00;;;;5095248;28;20228;-60
2022/11/24 06:32:16;;;;;;;0.53;0.53;;;;;6.50;95480.00;;;;5077873;28;20207;-63
2022/11/24 06:34:43;;;;;;;1.10;1.03;;;;;6.50;95474.00;;;;5095140;28;20655;-61
2022/11/24 06:37:10;;;;;;;0.80;0.80;;;;;6.50;95482.00;;;;5077231;28;20201;-61
2022/11/24 06:39:39;;;;;;;0.73;0.73;;;;;6.50;95490.00;;;;5095380;28;20224;-61
2022/11/24 06:42:06;;;;;;;0.63;0.63;;;;;6.40;95495.00;;;;5094809;28;20224;-61
2022/11/24 06:44:33;;;;;;;0.63;0.63;;;;;6.30;95501.00;;;;5094801;28;20296;-61
2022/11/24 06:47:00;;;;;;;0.70;0.70;;;;;6.30;95505.00;;;;5095114;28;20190;-64
2022/11/24 06:49:27;;;;;;;0.50;0.50;;;;;6.20;95506.00;;;;5077205;28;20223;-61
2022/11/24 06:51:56;;;;;;;1.03;1.03;;;;;6.20;95512.00;;;;5095051;28;20329;-61
2022/11/24 06:54:25;;;;;;;0.53;0.53;;;;;6.30;95513.00;;;;5094654;28;20589;-61
2022/11/24 06:56:56;;;;;;;0.60;0.60;;;;;6.30;95536.00;;;;5093606;28;20576;-61
2022/11/24 06:59:23;;;;;;;1.23;1.23;;;;;6.20;95537.00;;;;5094729;28;20241;-61
2022/11/24 07:01:50;;;;;;;0.70;0.70;;;;;6.20;95545.00;;;;5076883;28;20296;-60
2022/11/24 07:04:18;;;;;;;0.70;0.70;;;;;6.30;95553.00;;;;5094686;28;20214;-60
2022/11/24 07:06:45;;;;;;;0.73;0.73;;;;;6.40;95555.00;;;;5077141;28;20195;-60
2022/11/24 07:09:13;;;;;;;0.60;0.60;;;;;6.10;95570.00;;;;5094919;28;20326;-60
2022/11/24 07:11:40;;;;;;;0.60;0.60;;;;;6.10;95576.00;;;;5094614;28;20692;-60
2022/11/24 07:14:07;;;;;;;0.77;0.77;;;;;6.10;95567.00;;;;5094652;28;20194;-60
2022/11/24 07:16:36;;;;;;;1.43;1.33;;;;;6.20;95577.00;;;;5094571;28;20310;-60
2022/11/24 07:19:04;;;;;;;1.10;1.10;;;;;6.00;95571.00;;;;5094562;28;20205;-65
2022/11/24 07:21:31;;;;;;;1.70;1.60;;;;;5.90;95580.00;;;;5094533;28;20223;-63
2022/11/24 07:23:58;;;;;;;1.00;1.00;;;;;6.00;95598.00;;;;5094712;28;20206;-62
2022/11/24 07:26:25;;;;;;;1.50;1.00;;;;;6.10;95609.00;;;;5094368;28;20225;-64
2022/11/24 07:28:52;;;;;;;0.80;0.80;;;;;6.30;95609.00;;;;5094734;28;20201;-65
2022/11/24 07:31:23;;;;;;;0.70;0.70;;;;;6.20;95606.00;;;;5076766;28;20204;-62
2022/11/24 07:33:51;;;;;;;0.87;0.87;;;;;6.20;95617.00;;;;5094624;28;20189;-65
2022/11/24 07:36:19;;;;;;;0.60;0.60;;;;;6.10;95618.00;;;;5094575;28;20408;-60
2022/11/24 07:38:46;;;;;;;0.50;0.50;;;;;6.10;95629.00;;;;5094158;28;20611;-64
2022/11/24 07:41:14;;;;;;;0.60;0.60;;;;;6.10;95637.00;;;;5094316;28;20198;-64
2022/11/24 07:43:44;;;;;;;0.70;0.70;;;;;6.10;95637.00;;;;5094697;28;20240;-62
2022/11/24 07:46:12;;;;;;;0.50;0.50;;;;;5.90;95644.00;;;;5094429;28;20237;-62
2022/11/24 07:48:39;;;;;;;0.50;0.50;;;;;5.90;95643.00;;;;5094479;28;20211;-61
2022/11/24 07:51:08;;;;;;;0.50;0.50;;;;;6.00;95618.00;;;;5094262;28;20221;-62
2022/11/24 07:53:37;;;;;;;0.50;0.50;;;;;5.90;95624.00;;;;5094379;28;20200;-61
2022/11/24 07:56:05;;;;;;;0.80;0.80;;;;;6.10;95612.00;;;;5094050;28;20232;-62
2022/11/24 07:58:34;;;;;;;0.70;0.70;;;;;6.00;95612.00;;;;5094201;28;20201;-65
2022/11/24 08:01:09;;;;;;;0.50;0.50;;;;;5.80;95607.00;;;;5094169;28;20190;-60
2022/11/24 08:03:36;;;;;;;0.50;0.50;;;;;5.50;95605.00;;;;5094395;28;20668;-62
2022/11/24 08:06:03;;;;;;;0.50;0.50;;;;;5.40;95612.00;;;;5094129;28;20310;-61
2022/11/24 08:08:33;;;;;;;0.60;0.60;;;;;5.60;95611.00;;;;5093520;28;20249;-61
2022/11/24 08:11:05;;;;;;;0.60;0.60;;;;;5.50;95615.00;;;;5093882;28;20196;-61
2022/11/24 08:13:32;;;;;;;0.60;0.60;;;;;5.60;95634.00;;;;5076233;28;20651;-62
2022/11/24 08:16:02;;;;;;;0.50;0.50;;;;;5.60;95641.00;;;;5093881;28;20198;-62
2022/11/24 08:18:29;;;;;;;0.50;0.50;;;;;5.60;95641.00;;;;5093728;28;20191;-62
2022/11/24 08:20:57;;;;;;;0.67;0.67;;;;;5.50;95642.00;;;;5093954;28;20634;-62
2022/11/24 08:23:24;;;;;;;0.57;0.57;;;;;5.50;95645.00;;;;5076024;28;20215;-62
2022/11/24 08:25:51;;;;;;;0.50;0.50;;;;;5.50;95637.00;;;;5093801;28;20564;-62
2022/11/24 08:28:19;;;;;;;0.50;0.50;;;;;5.30;95632.00;;;;5093784;28;20199;-63
2022/11/24 08:30:46;;;;;;;0.50;0.50;;;;;5.30;95617.00;;;;5093676;28;20288;-62
2022/11/24 08:33:13;;;;;;;0.70;0.70;;;;;5.40;95629.00;;;;5093658;28;20196;-62
2022/11/24 08:35:40;;;;;;;0.77;0.77;;;;;5.50;95628.00;;;;5093832;28;20512;-62
2022/11/24 08:38:06;;;;;;;0.60;0.60;;;;;5.40;95636.00;;;;5093500;28;20214;-62
2022/11/24 08:40:33;;;;;;;0.60;0.60;;;;;5.50;95640.00;;;;5093546;28;20198;-61
2022/11/24 08:43:01;;;;;;;0.50;0.50;;;;;5.40;95632.00;;;;5093529;28;20255;-62
2022/11/24 08:45:28;;;;;;;0.70;0.70;;;;;5.40;95643.00;;;;5093435;28;20234;-62
2022/11/24 08:47:56;;;;;;;0.50;0.50;;;;;5.50;95647.00;;;;5093858;28;20604;-61
2022/11/24 08:50:25;;;;;;;0.60;0.60;;;;;5.30;95652.00;;;;5093430;28;20250;-61
2022/11/24 08:52:53;;;;;;;0.60;0.60;;;;;5.30;95645.00;;;;5093410;28;20683;-63
2022/11/24 08:55:19;;;;;;;0.60;0.60;;;;;5.20;95656.00;;;;5075612;28;20218;-63
2022/11/24 08:57:46;;;;;;;0.50;0.50;;;;;5.50;95644.00;;;;5075584;28;20247;-64
2022/11/24 09:00:21;;;;;;;0.60;0.60;;;;;5.50;95646.00;;;;5093067;28;20288;-62
2022/11/24 09:02:56;;;;;;;0.57;0.57;;;;;6.20;95665.00;;;;5093423;28;20196;-61
2022/11/24 09:05:23;;;;;;;0.50;0.50;;;;;6.00;95659.00;;;;5092958;28;20746;-62
2022/11/24 09:07:49;;;;;;;0.60;0.60;;;;;6.20;95660.00;;;;5093467;28;20336;-61
2022/11/24 09:10:19;;;;;;;0.50;0.50;;;;;6.20;95652.00;;;;5093211;28;20282;-62
2022/11/24 09:12:46;;;;;;;0.60;0.60;;;;;6.00;95665.00;;;;5093163;28;20672;-62
2022/11/24 09:15:15;;;;;;;0.53;0.53;;;;;6.00;95677.00;;;;5075284;28;20595;-61
2022/11/24 09:17:42;;;;;;;0.50;0.50;;;;;5.90;95675.00;;;;5075520;28;20236;-64
2022/11/24 09:20:12;;;;;;;0.57;0.57;;;;;5.90;95675.00;;;;5076720;28;20208;-63
2022/11/24 09:22:41;;;;;;;0.60;0.60;;;;;5.80;95665.00;;;;5096507;28;20710;-60
2022/11/24 09:25:08;;;;;;;0.60;0.60;;;;;5.90;95668.00;;;;5096532;28;20209;-61
2022/11/24 09:27:36;;;;;;;0.70;0.70;;;;;6.10;95667.00;;;;5096464;28;20191;-63
2022/11/24 09:30:03;;;;;;;0.50;0.50;;;;;6.10;95674.00;;;;5078593;28;20527;-62
2022/11/24 09:32:30;;;;;;;0.50;0.50;;;;;6.50;95670.00;;;;5096290;28;20263;-62
2022/11/24 09:34:57;;;;;;;0.47;0.47;;;;;6.70;95685.00;;;;5096517;28;20344;-64
2022/11/24 09:37:27;;;;;;;0.50;0.50;;;;;6.50;95688.00;;;;5096484;28;20215;-62
2022/11/24 09:39:53;;;;;;;0.73;0.73;;;;;6.20;95689.00;;;;5096218;28;20245;-62
2022/11/24 09:42:35;;;;;;;0.50;0.50;;;;;6.00;95699.00;;;;5078549;28;20211;-62
2022/11/24 09:45:27;;;;;;;0.60;0.60;;;;;6.00;95698.00;;;;5096178;28;20219;-62
2022/11/24 09:47:58;;;;;;;0.70;0.70;;;;;6.20;95699.00;;;;5078350;28;20649;-62
2022/11/24 09:50:27;;;;;;;0.70;0.70;;;;;6.30;95702.00;;;;5096284;28;20580;-63
2022/11/24 09:53:02;;;;;;;0.60;0.60;;;;;6.10;95707.00;;;;5096111;28;20228;-63
2022/11/24 09:55:35;;;;;;;0.60;0.60;;;;;6.20;95720.00;;;;5078359;28;20354;-62
2022/11/24 09:58:24;;;;;;;0.60;0.60;;;;;6.10;95719.00;;;;5096130;28;20250;-60
2022/11/24 10:00:54;;;;;;;0.60;0.60;;;;;6.20;95719.00;;;;5092702;28;20211;-60
2022/11/24 10:03:26;;;;;;;0.60;0.60;;;;;6.30;95718.00;;;;5095848;28;20604;-63
2022/11/24 10:05:53;;;;;;;0.77;0.77;;;;;6.50;95721.00;;;;5096311;28;20245;-61
2022/11/24 10:08:48;;;;;;;0.60;0.60;;;;;6.80;95728.00;;;;5095831;28;20206;-63
2022/11/24 10:11:22;;;;;;;0.70;0.70;;;;;6.90;95725.00;;;;5078226;28;20536;-61
2022/11/24 10:14:19;;;;;;;0.57;0.57;;;;;7.00;95720.00;;;;5095770;28;20205;-60
2022/11/24 10:16:52;;;;;;;0.53;0.53;;;;;7.30;95728.00;;;;5095581;28;20230;-60
2022/11/24 10:19:38;;;;;;;0.50;0.50;;;;;7.30;95719.00;;;;5095765;28;20201;-61
2022/11/24 10:22:20;;;;;;;0.67;0.67;;;;;7.10;95705.00;;;;5095779;28;20222;-61
2022/11/24 10:25:11;;;;;;;0.60;0.60;;;;;7.10;95714.00;;;;5095494;28;20293;-61
2022/11/24 10:27:42;;;;;;;4.53;1.53;;;;;7.10;95710.00;;;;5077777;28;20233;-61
2022/11/24 10:30:15;;;;;;;0.50;0.50;;;;;7.20;95717.00;;;;5095740;28;20293;-62
2022/11/24 10:32:45;;;;;;;0.60;0.60;;;;;7.40;95718.00;;;;5078048;28;20222;-63
2022/11/24 10:35:16;;;;;;;0.80;0.80;;;;;7.30;95701.00;;;;5079660;28;20195;-62
2022/11/24 10:37:50;;;;;;;0.50;0.50;;;;;7.40;95720.00;;;;5078439;28;20220;-64
2022/11/24 10:40:30;;;;;;;1.17;0.90;;;;;8.20;95711.00;;;;5095764;28;20200;-64
2022/11/24 10:42:57;;;;;;;0.67;0.67;;;;;8.50;95725.00;;;;5095830;28;20186;-64
2022/11/24 10:45:27;;;;;;;0.70;0.70;;;;;9.00;95720.00;;;;5095586;28;20312;-64
2022/11/24 10:47:54;;;;;;;9.17;0.90;;;;;8.90;95717.00;;;;5077841;28;20195;-63
2022/11/24 10:50:25;;;;;;;0.50;0.50;;;;;8.90;95718.00;;;;5095478;28;20315;-62
2022/11/24 10:53:00;;;;;;;0.83;0.83;;;;;8.50;95716.00;;;;5077789;28;20532;-62
2022/11/24 10:55:57;;;;;;;2.80;1.07;;;;;9.30;95684.00;;;;5095010;28;20201;-62
2022/11/24 10:58:28;;;;;;;0.60;0.60;;;;;9.90;95679.00;;;;5095322;28;20217;-62
2022/11/24 11:00:59;;;;;;;0.80;0.80;;;;;10.20;95703.00;;;;5095046;28;20194;-62
2022/11/24 11:03:32;;;;;;;0.60;0.60;;;;;9.70;95722.00;;;;5095128;28;20260;-62
2022/11/24 11:06:08;;;;;;;0.70;0.70;;;;;9.10;95703.00;;;;5094705;28;20247;-62
2022/11/24 11:08:35;;;;;;;0.70;0.70;;;;;9.00;95694.00;;;;5094729;28;20226;-62
2022/11/24 11:11:17;;;;;;;0.70;0.70;;;;;9.50;95666.00;;;;5094862;28;20207;-64
2022/11/24 11:13:54;;;;;;;0.50;0.50;;;;;9.60;95682.00;;;;5094616;28;20218;-64
2022/11/24 11:16:39;;;;;;;0.80;0.80;;;;;10.30;95717.00;;;;5094624;28;20210;-62
2022/11/24 11:19:31;;;;;;;1.07;1.07;;;;;10.60;95619.00;;;;5077227;28;20307;-62
2022/11/24 11:22:03;;;;;;;0.67;0.67;;;;;10.40;95711.00;;;;5094758;28;20191;-62
2022/11/24 11:24:32;;;;;;;0.70;0.70;;;;;11.10;95714.00;;;;5094317;28;20211;-62
2022/11/24 11:27:01;;;;;;;1.77;1.67;;;;;12.00;95708.00;;;;5094488;28;20195;-62
2022/11/24 11:29:31;;;;;;;0.60;0.60;;;;;11.20;95700.00;;;;5094466;28;20199;-62
2022/11/24 11:32:03;;;;;;;0.70;0.70;;;;;11.80;95636.00;;;;5094387;28;20214;-63
2022/11/24 11:34:35;;;;;;;0.80;0.80;;;;;12.60;95734.00;;;;5094340;28;20267;-64
2022/11/24 11:37:03;;;;;;;5.47;1.50;;;;;11.20;95718.00;;;;5094284;28;20694;-62
2022/11/24 11:39:32;;;;;;;0.70;0.70;;;;;13.00;95663.00;;;;5094151;28;20584;-62
2022/11/24 11:42:13;;;;;;;0.77;0.77;;;;;11.60;95665.00;;;;5093707;28;20354;-62
2022/11/24 11:44:47;;;;;;;0.60;0.60;;;;;12.10;95732.00;;;;5094110;28;20213;-62
2022/11/24 11:47:23;;;;;;;0.73;0.70;;;;;13.90;95678.00;;;;5094225;28;20277;-61
2022/11/24 11:49:50;;;;;;;0.73;0.73;;;;;13.10;95741.00;;;;5094342;28;20674;-61
2022/11/24 11:52:46;;;;;;;0.57;0.57;;;;;12.90;95659.00;;;;5076505;28;20293;-61
2022/11/24 11:55:44;;;;;;;0.80;0.80;;;;;11.80;95735.00;;;;5094244;28;20643;-61
2022/11/24 11:58:26;;;;;;;0.70;0.70;;;;;11.90;95734.00;;;;5094171;28;20550;-61
2022/11/24 12:01:03;;;;;;;0.70;0.70;;;;;12.50;95747.00;;;;5094059;28;20225;-64
2022/11/24 12:03:56;;;;;;;0.67;0.67;;;11.80;53.80;10.70;95680.00;;;;5093985;28;20198;-62
2022/11/24 12:06:54;;;;;;;0.50;0.50;;;12.70;49.60;12.80;95761.00;;;;5093877;28;20230;-62
2022/11/24 12:09:40;;;;;;;0.50;0.50;;;12.80;49.20;12.20;95774.00;;;;5093818;28;20199;-62
2022/11/24 12:12:42;;;;;;;0.90;0.90;;;11.70;51.80;10.70;95767.00;;;;5094195;28;20245;-62
2022/11/24 12:15:21;;;;;;;0.70;0.70;;;11.60;55.50;11.00;95717.00;;;;5093961;28;20186;-62
2022/11/24 12:17:54;;;;;;;0.73;0.73;;;12.30;50.50;13.00;95755.00;;;;5093858;28;20596;-62
2022/11/24 12:20:46;;;;;;;0.50;0.50;;;13.80;46.20;13.30;95733.00;;;;5093940;28;20195;-63
2022/11/24 12:23:25;;;;;;;0.40;0.40;;;;;14.10;95754.00;;;;5093707;28;20221;-63
2022/11/24 12:25:59;;;;;;;0.50;0.50;;;;;17.20;95677.00;;;;5076004;28;20649;-62
2022/11/24 12:28:39;;;;;;;0.60;0.60;;;;;19.20;95690.00;;;;5093464;28;20233;-63
2022/11/24 12:31:11;;;;;;;0.50;0.50;;;;;20.40;95693.00;;;;5075814;28;20716;-63
2022/11/24 12:33:58;;;;;;;0.63;0.63;;;;;19.20;95696.00;;;;5094717;28;20234;-63
2022/11/24 12:36:38;;;;;;;0.50;0.50;;;;;20.70;95708.00;;;;5094910;28;20167;-63
2022/11/24 12:39:24;;;;;;;0.40;0.40;;;19.60;25.00;19.70;95699.00;;;;5093796;28;20205;-65
2022/11/24 12:42:04;;;;;;;0.70;0.70;;;;;20.50;95709.00;;;;5093506;28;20259;-68